메인 페이지
METAR-TAF:

METAR-TAF

공항 :

포트오브스페인, 트리니다드 섬, 트리니다드 토바고

위도: 10-37N, 경도: 061-21W, 고도: 12m

현재 날씨관측

예보는 1 시간 10분 전, 07:00시(UTC)에 발표되었습니다.
동남동3kt
온도 23°C
습도 89%
기압 1015 hPa
시정 10km 이상
고도 1600ft 상공 구름 조금

METAR: TTPP 150700Z 11003KT 9999 FEW016 23/21 Q1015 NOSIG

시각: 04:10 (08:10 UTC)

예보

예보는 4 시간 10분 전, 04:00시(UTC)에 발표되었습니다.
예보 대상 시간: 15일 06시부터 16일 06시까지 (UTC)
5kt
시정 10km 이상
고도 1800ft 상공 구름 조금
일시적
15일 08시부터 15일 11시까지 (UTC)
시정: 8000m
고도 1500ft 상공 구름 보통
전환 중
15일 11시부터 15일 13시까지 (UTC)
15kt, 순간 최대 풍속 25kt
고도 2500ft 상공 구름 보통
전환 중
16일 00시부터 16일 02시까지 (UTC)
5kt
고도 1500ft 상공 구름 보통
일시적
16일 00시부터 16일 06시까지 (UTC)
시정: 5000m
고도 1500ft 상공 구름 많음

TAF: TTPP 150400Z 1506/1606 09005KT 9999 FEW018 TEMPO 1508/1511 8000 SHRA/VCSH SCT015 BECMG 1511/1513 09015G25KT SCT025 BECMG 1600/1602 09005KT SCT015 TEMPO 1600/1606 5000 SHRA/VCSH BKN015

4,000개 이상의 공항 관측 자료 및 예보 (METAR 및 TAF 보고).

지도상에서 검색 가능한 기상관측소가 노란 점과 빨간 점으로 표시되어 있습니다.

기상관측소 명을 보려면 표시 위로 마우스를 이동하세요.

날씨 관측과 예보를 보려면 클릭하세요.

지도 변경 : 확대하려면 엑스 표시가 있는 녹색 버튼, 축소하려면 빼기 표시가 있는 녹색 버튼, 다음 페이지의 지도를 보려면 녹색 화살표를 클릭하세요.


METAR-TAF: